Time;durP1;ratioP1;P1;durP2;ratioP2;P2;SDS_P1;SDS_P2;PMS_P1;PMS_P2;Temp;Humidity;BMP_temperature;BMP_pressure;BME280_temperature;BME280_humidity;BME280_pressure;Samples;Min_cycle;Max_cycle;Signal;HPM_P1;HPM_P2
2023/01/29 00:00:39;;;;;;;;;;;;;;;0.15;67.40;93373.53;2049663;70;20050;-75
2023/01/29 00:03:04;;;;;;;;;;;;;;;0.12;67.53;93373.84;2052641;70;20518;-74
2023/01/29 00:05:30;;;;;;;;;;;;;;;0.19;66.90;93368.44;2051476;70;20609;-74
2023/01/29 00:07:55;;;;;;;;;;;;;;;0.22;66.75;93374.94;2050146;70;20046;-74
2023/01/29 00:10:21;;;;;;;;;;;;;;;0.10;66.89;93365.31;2047871;70;20057;-75
2023/01/29 00:12:46;;;;;;;;;;;;;;;-0.02;67.56;93357.19;2049597;70;20058;-76
2023/01/29 00:15:12;;;;;;;;;;;;;;;0.02;67.88;93361.66;2051140;70;20054;-72
2023/01/29 00:17:37;;;;;;;;;;;;;;;0.06;67.30;93362.84;2048311;70;20145;-73
2023/01/29 00:20:03;;;;;;;;;;;;;;;0.08;67.11;93354.75;2053169;70;20501;-75
2023/01/29 00:22:29;;;;;;;;;;;;;;;0.12;66.60;93357.97;2049495;70;20618;-75
2023/01/29 00:24:54;;;;;;;;;;;;;;;0.12;67.07;93354.47;2050227;70;20101;-74
2023/01/29 00:27:20;;;;;;;;;;;;;;;0.10;67.34;93357.75;2052405;70;20078;-74
2023/01/29 00:30:07;;;;;;;;;;;;;;;0.06;67.41;93354.56;2050759;70;20494;-74
2023/01/29 00:32:33;;;;;;;;;;;;;;;0.03;67.40;93358.38;2049227;70;20069;-76
2023/01/29 00:34:59;;;;;;;;;;;;;;;0.01;67.07;93349.84;2051226;70;20070;-74
2023/01/29 00:37:25;;;;;;;;;;;;;;;0.04;67.18;93348.78;2051997;70;20058;-75
2023/01/29 00:39:50;;;;;;;;;;;;;;;0.03;67.57;93354.84;2051456;70;20118;-74
2023/01/29 00:45:00;;;;;;;;;;;;;;;-0.03;67.95;93350.16;2050408;70;20617;-73
2023/01/29 00:47:34;;;;;;;;;;;;;;;-0.08;67.57;93345.44;2050336;70;20530;-74
2023/01/29 00:50:00;;;;;;;;;;;;;;;-0.02;67.61;93348.88;2044189;70;20120;-75
2023/01/29 00:52:26;;;;;;;;;;;;;;;-0.06;67.99;93353.22;2049235;70;20692;-74
2023/01/29 00:54:52;;;;;;;;;;;;;;;-0.01;68.44;93349.59;2050173;70;21105;-76
2023/01/29 00:57:18;;;;;;;;;;;;;;;-0.12;67.61;93347.03;2050401;70;20133;-76
2023/01/29 00:59:43;;;;;;;;;;;;;;;-0.19;68.66;93344.84;2051223;69;20489;-74
2023/01/29 01:04:53;;;;;;;;;;;;;;;-0.72;70.62;93345.31;2049900;70;20078;-76
2023/01/29 01:07:18;;;;;;;;;;;;;;;-0.80;70.85;93341.66;2044590;70;20174;-75
2023/01/29 01:12:28;;;;;;;;;;;;;;;-0.29;68.88;93359.06;2050553;70;20475;-73
2023/01/29 01:14:54;;;;;;;;;;;;;;;-0.52;69.16;93360.66;2051317;70;20053;-73
2023/01/29 01:17:20;;;;;;;;;;;;;;;-0.64;70.14;93348.22;2047573;70;20089;-74
2023/01/29 01:19:46;;;;;;;;;;;;;;;-0.47;69.91;93365.34;2050913;70;20130;-74
2023/01/29 01:22:11;;;;;;;;;;;;;;;-0.62;69.87;93357.50;2050815;70;20053;-75
2023/01/29 01:24:37;;;;;;;;;;;;;;;-0.57;70.38;93350.41;2047261;70;20058;-76
2023/01/29 01:27:03;;;;;;;;;;;;;;;-0.59;70.29;93342.66;2050624;70;20561;-76
2023/01/29 01:29:30;;;;;;;;;;;;;;;-0.54;69.52;93347.34;2046046;70;20098;-74
2023/01/29 01:31:56;;;;;;;;;;;;;;;-0.39;69.27;93355.19;2050598;70;20573;-76
2023/01/29 01:34:22;;;;;;;;;;;;;;;-0.38;69.42;93359.44;2045994;70;20153;-77
2023/01/29 01:36:48;;;;;;;;;;;;;;;-0.27;68.87;93362.06;2048153;70;20204;-75
2023/01/29 01:39:13;;;;;;;;;;;;;;;-0.18;68.58;93374.00;2046449;70;20166;-74
2023/01/29 01:41:39;;;;;;;;;;;;;;;-0.26;68.65;93374.63;2049581;70;20061;-75
2023/01/29 01:44:05;;;;;;;;;;;;;;;-0.28;69.01;93379.19;2050160;70;20494;-72
2023/01/29 01:46:32;;;;;;;;;;;;;;;-0.36;69.29;93381.06;2049300;70;20049;-73
2023/01/29 01:49:02;;;;;;;;;;;;;;;-0.22;68.84;93387.44;2046563;70;20054;-73
2023/01/29 01:51:30;;;;;;;;;;;;;;;-0.24;68.35;93393.47;2047130;70;20136;-73
2023/01/29 01:54:06;;;;;;;;;;;;;;;-0.45;69.62;93381.44;2045661;70;20070;-74
2023/01/29 01:56:39;;;;;;;;;;;;;;;-0.40;69.34;93372.31;2046032;70;20487;-73
2023/01/29 01:59:08;;;;;;;;;;;;;;;-0.28;68.16;93377.16;2050753;70;20131;-75
2023/01/29 02:01:33;;;;;;;;;;;;;;;-0.22;68.13;93371.56;2052221;70;20066;-73
2023/01/29 02:09:34;;;;;;;;;;;;;;;-0.45;68.66;93371.13;2045095;70;20723;-73
2023/01/29 02:12:10;;;;;;;;;;;;;;;-0.46;68.97;93374.41;2049825;70;20055;-73
2023/01/29 02:14:39;;;;;;;;;;;;;;;-0.45;68.76;93368.38;2051294;70;20120;-74
2023/01/29 02:17:09;;;;;;;;;;;;;;;-0.49;69.34;93364.41;2050829;70;20851;-73
2023/01/29 02:19:53;;;;;;;;;;;;;;;-0.43;69.22;93368.56;2052071;70;20481;-76
2023/01/29 02:22:38;;;;;;;;;;;;;;;-0.50;69.19;93363.66;2048787;70;20042;-75
2023/01/29 02:25:08;;;;;;;;;;;;;;;-0.52;68.51;93369.69;2050867;70;20054;-73
2023/01/29 02:27:43;;;;;;;;;;;;;;;-0.54;68.76;93374.25;2049986;70;20046;-74
2023/01/29 02:30:15;;;;;;;;;;;;;;;-0.56;68.62;93380.31;2052806;70;20042;-74
2023/01/29 02:32:53;;;;;;;;;;;;;;;-0.74;70.26;93389.31;2051693;70;20152;-74
2023/01/29 02:35:28;;;;;;;;;;;;;;;-0.81;70.39;93384.41;2050470;70;20063;-73
2023/01/29 02:37:57;;;;;;;;;;;;;;;-0.64;69.38;93386.94;2051528;70;20149;-76
2023/01/29 02:40:26;;;;;;;;;;;;;;;-0.85;70.42;93392.22;2046618;70;20053;-75
2023/01/29 02:43:07;;;;;;;;;;;;;;;-1.26;70.73;93390.41;2051526;70;20065;-77
2023/01/29 02:45:40;;;;;;;;;;;;;;;-1.29;71.23;93394.19;2048456;70;20046;-75
2023/01/29 02:48:10;;;;;;;;;;;;;;;-1.03;70.68;93397.19;2052442;70;20138;-76
2023/01/29 02:50:48;;;;;;;;;;;;;;;-0.93;70.28;93394.81;2047147;70;20106;-73
2023/01/29 02:53:35;;;;;;;;;;;;;;;-1.08;70.32;93388.97;2048447;70;20050;-74
2023/01/29 02:56:12;;;;;;;;;;;;;;;-0.94;70.13;93387.81;2049572;70;20462;-73
2023/01/29 02:58:59;;;;;;;;;;;;;;;-0.81;69.80;93389.91;2046854;70;20565;-72
2023/01/29 03:01:37;;;;;;;;;;;;;;;-0.81;69.31;93407.25;2049772;70;20061;-75
2023/01/29 03:04:05;;;;;;;;;;;;;;;-0.82;69.85;93405.78;2047265;70;20042;-75
2023/01/29 03:06:34;;;;;;;;;;;;;;;-0.69;69.07;93407.13;2051731;70;20046;-74
2023/01/29 03:09:01;;;;;;;;;;;;;;;-0.73;69.43;93415.72;2051387;70;20187;-73
2023/01/29 03:11:35;;;;;;;;;;;;;;;-0.73;69.26;93415.72;2050572;70;20054;-73
2023/01/29 03:14:03;;;;;;;;;;;;;;;-0.79;69.83;93421.28;2048044;70;20053;-75
2023/01/29 03:16:45;;;;;;;;;;;;;;;-0.76;69.24;93427.81;2048282;70;20053;-74
2023/01/29 03:19:17;;;;;;;;;;;;;;;-0.81;69.45;93423.09;2048850;70;20165;-75
2023/01/29 03:22:07;;;;;;;;;;;;;;;-0.83;69.19;93434.66;2047910;70;20050;-76
2023/01/29 03:33:43;;;;;;;;;;;;;;;-0.89;69.36;93424.94;2047842;70;20165;-73
2023/01/29 03:36:15;;;;;;;;;;;;;;;-0.81;69.27;93421.09;2048419;70;20152;-75
2023/01/29 03:38:42;;;;;;;;;;;;;;;-0.83;69.21;93417.31;2047687;70;20580;-75
2023/01/29 03:41:26;;;;;;;;;;;;;;;-0.85;68.97;93414.34;2051198;70;20433;-74
2023/01/29 03:43:52;;;;;;;;;;;;;;;-0.87;68.83;93414.88;2048195;70;20058;-74
2023/01/29 03:46:21;;;;;;;;;;;;;;;-0.93;69.00;93416.19;2047561;70;20049;-75
2023/01/29 03:48:46;;;;;;;;;;;;;;;-0.89;68.97;93411.88;2051442;70;20042;-75
2023/01/29 03:51:34;;;;;;;;;;;;;;;-0.93;68.30;93410.66;2047750;70;20049;-76
2023/01/29 03:54:07;;;;;;;;;;;;;;;-0.93;68.60;93408.63;2047029;70;20105;-75
2023/01/29 03:56:44;;;;;;;;;;;;;;;-0.97;68.02;93413.72;2047091;70;20427;-76
2023/01/29 03:59:16;;;;;;;;;;;;;;;-0.95;68.11;93413.94;2050666;70;20072;-74
2023/01/29 04:02:18;;;;;;;;;;;;;;;-0.99;67.43;93413.50;2047126;70;20062;-75
2023/01/29 04:04:45;;;;;;;;;;;;;;;-1.11;68.65;93412.09;2048261;70;20482;-74
2023/01/29 04:07:13;;;;;;;;;;;;;;;-0.96;68.66;93419.97;2048428;70;20137;-76
2023/01/29 04:09:47;;;;;;;;;;;;;;;-1.04;68.45;93420.56;2046246;70;20671;-74
2023/01/29 04:12:14;;;;;;;;;;;;;;;-0.99;68.75;93421.78;2045511;70;20101;-75
2023/01/29 04:14:42;;;;;;;;;;;;;;;-0.92;67.80;93415.66;2046572;70;20486;-74
2023/01/29 04:17:13;;;;;;;;;;;;;;;-1.06;67.97;93411.28;2047816;70;20156;-74
2023/01/29 04:19:48;;;;;;;;;;;;;;;-1.26;69.51;93414.50;2046992;70;20046;-74
2023/01/29 04:22:24;;;;;;;;;;;;;;;-1.14;68.46;93418.69;2048099;70;20141;-74
2023/01/29 04:24:50;;;;;;;;;;;;;;;-1.16;68.21;93416.41;2050470;70;20049;-74
2023/01/29 04:27:25;;;;;;;;;;;;;;;-1.19;68.95;93413.94;2051350;70;20094;-76
2023/01/29 04:30:10;;;;;;;;;;;;;;;-1.15;68.78;93406.09;2047660;70;20046;-73
2023/01/29 04:32:45;;;;;;;;;;;;;;;-1.12;69.00;93419.63;2048189;70;20137;-73
2023/01/29 04:35:21;;;;;;;;;;;;;;;-1.20;68.19;93410.41;2047578;70;20102;-74
2023/01/29 04:37:55;;;;;;;;;;;;;;;-1.18;68.35;93420.97;2045615;70;20054;-73
2023/01/29 04:40:25;;;;;;;;;;;;;;;-1.37;69.85;93416.13;2046149;70;20106;-73
2023/01/29 04:43:04;;;;;;;;;;;;;;;-1.43;68.92;93418.16;2045600;70;20449;-74
2023/01/29 04:45:35;;;;;;;;;;;;;;;-1.41;69.48;93418.41;2047240;70;20161;-73
2023/01/29 04:48:04;;;;;;;;;;;;;;;-1.41;68.89;93415.66;2048284;70;20515;-74
2023/01/29 04:50:38;;;;;;;;;;;;;;;-1.57;68.14;93411.75;2046073;70;20089;-74
2023/01/29 04:53:11;;;;;;;;;;;;;;;-1.57;68.06;93406.22;2045620;70;20107;-75
2023/01/29 04:55:48;;;;;;;;;;;;;;;-1.63;69.00;93404.78;2046361;70;20058;-75
2023/01/29 04:58:14;;;;;;;;;;;;;;;-1.68;68.37;93409.09;2046180;70;20057;-74
2023/01/29 05:00:44;;;;;;;;;;;;;;;-1.69;67.97;93409.63;2046877;70;20055;-75
2023/01/29 05:03:12;;;;;;;;;;;;;;;-1.83;67.92;93408.72;2046761;70;20519;-74
2023/01/29 05:05:40;;;;;;;;;;;;;;;-1.91;68.83;93407.78;2047664;70;20495;-77
2023/01/29 05:08:06;;;;;;;;;;;;;;;-2.03;68.01;93404.34;2046741;70;20438;-75
2023/01/29 05:10:32;;;;;;;;;;;;;;;-2.17;68.13;93406.19;2047291;70;20121;-78
2023/01/29 05:13:03;;;;;;;;;;;;;;;-1.99;68.39;93415.84;2048082;70;20177;-74
2023/01/29 05:15:32;;;;;;;;;;;;;;;-2.09;67.63;93409.91;2047054;70;20517;-74
2023/01/29 05:18:01;;;;;;;;;;;;;;;-2.10;67.02;93400.13;2047944;70;20071;-73
2023/01/29 05:20:29;;;;;;;;;;;;;;;-2.23;66.49;93405.47;2046527;70;20059;-75
2023/01/29 05:22:57;;;;;;;;;;;;;;;-2.18;66.15;93410.19;2047857;70;20054;-73
2023/01/29 05:25:27;;;;;;;;;;;;;;;-2.12;65.72;93418.44;2046661;70;20188;-74
2023/01/29 05:28:06;;;;;;;;;;;;;;;-2.13;63.89;93423.22;2048911;70;20434;-74
2023/01/29 05:30:32;;;;;;;;;;;;;;;-2.26;63.84;93431.31;2047655;70;20051;-75
2023/01/29 05:32:58;;;;;;;;;;;;;;;-2.31;62.45;93434.84;2047452;70;20223;-74
2023/01/29 05:35:23;;;;;;;;;;;;;;;-2.50;65.58;93433.94;2050967;70;20046;-73
2023/01/29 05:37:48;;;;;;;;;;;;;;;-2.30;64.79;93437.09;2050786;70;20046;-73
2023/01/29 05:40:14;;;;;;;;;;;;;;;-2.33;64.08;93438.13;2050424;70;20038;-74
2023/01/29 05:42:39;;;;;;;;;;;;;;;-2.28;63.93;93444.88;2051712;70;20045;-76
2023/01/29 05:45:05;;;;;;;;;;;;;;;-2.36;64.14;93446.66;2049391;70;20176;-75
2023/01/29 05:47:31;;;;;;;;;;;;;;;-2.51;64.60;93446.25;2049641;70;20104;-74
2023/01/29 05:49:56;;;;;;;;;;;;;;;-2.76;63.84;93446.06;2050206;70;20066;-76
2023/01/29 05:52:21;;;;;;;;;;;;;;;-2.82;64.41;93442.59;2051404;70;20128;-73
2023/01/29 05:54:47;;;;;;;;;;;;;;;-2.71;64.13;93439.78;2050933;70;20090;-73
2023/01/29 05:57:13;;;;;;;;;;;;;;;-2.81;63.33;93441.31;2052715;70;20558;-74
2023/01/29 05:59:39;;;;;;;;;;;;;;;-2.76;62.51;93428.78;2052360;70;20085;-73
2023/01/29 06:02:04;;;;;;;;;;;;;;;-2.61;61.99;93432.75;2051197;70;20082;-75
2023/01/29 06:04:29;;;;;;;;;;;;;;;-2.72;62.71;93429.28;2051266;70;20161;-75
2023/01/29 06:06:55;;;;;;;;;;;;;;;-2.68;62.22;93432.53;2052435;70;20042;-76
2023/01/29 06:09:20;;;;;;;;;;;;;;;-2.71;61.62;93444.56;2051065;70;20062;-75
2023/01/29 06:11:46;;;;;;;;;;;;;;;-2.73;62.20;93441.56;2051777;70;20430;-73
2023/01/29 06:14:11;;;;;;;;;;;;;;;-2.73;61.58;93445.06;2053102;70;20087;-77
2023/01/29 06:16:37;;;;;;;;;;;;;;;-2.68;61.01;93460.09;2050433;70;20086;-75
2023/01/29 06:19:02;;;;;;;;;;;;;;;-2.78;61.48;93469.91;2053494;70;20102;-75
2023/01/29 06:21:27;;;;;;;;;;;;;;;-2.80;61.70;93467.63;2053178;70;20110;-74
2023/01/29 06:23:53;;;;;;;;;;;;;;;-2.90;62.60;93464.41;2051107;70;20152;-77
2023/01/29 06:26:18;;;;;;;;;;;;;;;-3.18;64.20;93467.22;2052004;70;20244;-76
2023/01/29 06:28:47;;;;;;;;;;;;;;;-3.18;65.10;93477.47;2050241;70;20079;-74
2023/01/29 06:31:12;;;;;;;;;;;;;;;-3.12;63.78;93469.94;2051460;70;20449;-74
2023/01/29 06:33:37;;;;;;;;;;;;;;;-3.11;64.07;93477.00;2050963;70;20043;-74
2023/01/29 06:36:03;;;;;;;;;;;;;;;-3.16;63.63;93475.75;2050969;70;20168;-77
2023/01/29 06:38:29;;;;;;;;;;;;;;;-3.12;63.48;93480.97;2051330;70;20141;-74
2023/01/29 06:40:55;;;;;;;;;;;;;;;-3.10;63.32;93484.00;2052568;70;20042;-76
2023/01/29 06:43:22;;;;;;;;;;;;;;;-3.14;63.44;93484.25;2050769;70;20581;-77
2023/01/29 06:45:51;;;;;;;;;;;;;;;-3.15;62.94;93487.50;2052078;70;20451;-76
2023/01/29 06:48:17;;;;;;;;;;;;;;;-3.15;63.15;93496.53;2051666;70;20054;-76
2023/01/29 06:50:43;;;;;;;;;;;;;;;-3.16;62.81;93492.28;2051399;70;20160;-74
2023/01/29 06:53:09;;;;;;;;;;;;;;;-3.21;63.26;93501.25;2052193;70;20486;-75
2023/01/29 06:55:34;;;;;;;;;;;;;;;-3.32;63.15;93491.00;2051221;70;20046;-75
2023/01/29 06:58:03;;;;;;;;;;;;;;;-3.33;64.87;93502.53;2052368;70;20072;-75
2023/01/29 07:00:28;;;;;;;;;;;;;;;-3.32;64.19;93504.78;2051565;70;20046;-74
2023/01/29 07:02:54;;;;;;;;;;;;;;;-3.21;63.45;93497.75;2050885;70;20506;-74
2023/01/29 07:05:19;;;;;;;;;;;;;;;-3.21;62.07;93503.28;2051588;70;20185;-74
2023/01/29 07:07:45;;;;;;;;;;;;;;;-3.09;62.13;93502.00;2050778;70;20577;-75
2023/01/29 07:10:10;;;;;;;;;;;;;;;-3.59;62.81;93511.03;2048357;70;20080;-76
2023/01/29 07:12:35;;;;;;;;;;;;;;;-3.74;63.01;93508.53;2050392;70;20077;-76
2023/01/29 07:15:01;;;;;;;;;;;;;;;-3.45;62.12;93512.78;2050095;70;20133;-74
2023/01/29 07:17:26;;;;;;;;;;;;;;;-3.56;60.66;93506.53;2050532;70;20094;-74
2023/01/29 07:19:52;;;;;;;;;;;;;;;-3.49;61.54;93506.03;2049516;70;20042;-74
2023/01/29 07:22:17;;;;;;;;;;;;;;;-3.35;60.73;93508.53;2051836;70;20165;-77
2023/01/29 07:24:42;;;;;;;;;;;;;;;-3.19;61.31;93503.53;2051292;70;20038;-74
2023/01/29 07:27:08;;;;;;;;;;;;;;;-3.14;60.72;93505.53;2049970;70;20046;-74
2023/01/29 07:29:33;;;;;;;;;;;;;;;-3.08;60.39;93503.50;2049159;70;20083;-75
2023/01/29 07:31:59;;;;;;;;;;;;;;;-3.05;60.70;93505.25;2049130;70;20046;-77
2023/01/29 07:34:24;;;;;;;;;;;;;;;-3.13;60.77;93507.03;2048857;70;20047;-79
2023/01/29 07:36:52;;;;;;;;;;;;;;;-3.14;61.22;93508.28;2048116;70;20046;-79
2023/01/29 07:39:17;;;;;;;;;;;;;;;-3.21;61.73;93508.78;2046014;70;20772;-76
2023/01/29 07:41:42;;;;;;;;;;;;;;;-3.12;61.09;93514.03;2049994;70;20042;-80
2023/01/29 07:44:14;;;;;;;;;;;;;;;-3.11;60.97;93513.53;2049714;70;20049;-74
2023/01/29 07:46:39;;;;;;;;;;;;;;;-3.07;61.33;93516.03;2050846;70;20050;-75
2023/01/29 07:49:05;;;;;;;;;;;;;;;-3.03;61.13;93513.03;2050265;70;20128;-76
2023/01/29 07:51:30;;;;;;;;;;;;;;;-3.11;61.82;93515.56;2049268;70;20106;-80
2023/01/29 07:53:56;;;;;;;;;;;;;;;-3.26;62.50;93518.53;2049635;70;20108;-76
2023/01/29 07:56:21;;;;;;;;;;;;;;;-3.32;62.98;93515.06;2050519;70;20466;-78
2023/01/29 07:58:46;;;;;;;;;;;;;;;-3.22;62.61;93515.53;2051369;70;20571;-76
2023/01/29 08:01:12;;;;;;;;;;;;;;;-3.17;62.72;93509.28;2050209;70;20049;-79
2023/01/29 08:03:37;;;;;;;;;;;;;;;-3.20;62.82;93511.03;2050459;70;20371;-80
2023/01/29 08:06:03;;;;;;;;;;;;;;;-3.25;63.08;93517.31;2049932;70;20090;-75
2023/01/29 08:08:29;;;;;;;;;;;;;;;-3.23;62.75;93501.03;2050443;70;20390;-77
2023/01/29 08:10:54;;;;;;;;;;;;;;;-3.54;63.67;93504.78;2047491;70;20050;-80
2023/01/29 08:13:20;;;;;;;;;;;;;;;-3.24;63.34;93505.03;2049469;70;20098;-75
2023/01/29 08:15:45;;;;;;;;;;;;;;;-3.20;62.47;93488.28;2046763;70;20352;-74
2023/01/29 08:18:11;;;;;;;;;;;;;;;-3.06;61.98;93492.75;2049767;70;20532;-73
2023/01/29 08:20:37;;;;;;;;;;;;;;;-2.96;61.09;93493.22;2049528;70;20075;-76
2023/01/29 08:23:04;;;;;;;;;;;;;;;-2.97;61.52;93488.97;2048928;70;20047;-74
2023/01/29 08:25:29;;;;;;;;;;;;;;;-2.88;61.59;93491.47;2050638;70;20059;-74
2023/01/29 08:27:56;;;;;;;;;;;;;;;-2.93;60.78;93487.47;2050539;70;20494;-76
2023/01/29 08:30:23;;;;;;;;;;;;;;;-3.12;59.67;93489.97;2048133;70;20074;-75
2023/01/29 08:32:49;;;;;;;;;;;;;;;-3.03;59.96;93497.22;2051151;70;20462;-76
2023/01/29 08:35:14;;;;;;;;;;;;;;;-2.96;59.57;93499.50;2050553;70;20097;-75
2023/01/29 08:37:40;;;;;;;;;;;;;;;-2.97;59.74;93495.25;2052315;70;20054;-81
2023/01/29 08:40:08;;;;;;;;;;;;;;;-2.79;59.75;93493.94;2051546;70;20479;-72
2023/01/29 08:42:34;;;;;;;;;;;;;;;-2.61;59.34;93496.16;2051548;70;20097;-74
2023/01/29 08:44:59;;;;;;;;;;;;;;;-2.10;59.23;93490.44;2044896;70;20051;-75
2023/01/29 08:47:25;;;;;;;;;;;;;;;-1.81;60.13;93497.28;2049722;70;20129;-76
2023/01/29 08:49:50;;;;;;;;;;;;;;;-1.51;60.01;93491.81;2051246;70;20125;-76
2023/01/29 08:52:15;;;;;;;;;;;;;;;-1.12;59.80;93494.25;2050942;70;20047;-75
2023/01/29 08:54:41;;;;;;;;;;;;;;;-1.02;58.96;93495.41;2050424;70;20073;-77
2023/01/29 08:57:06;;;;;;;;;;;;;;;-0.89;58.49;93488.53;2050331;70;20432;-75
2023/01/29 08:59:32;;;;;;;;;;;;;;;-0.30;58.41;93487.63;2050769;70;20109;-74
2023/01/29 09:01:57;;;;;;;;;;;;;;;-0.49;57.94;93483.34;2051136;70;20046;-75
2023/01/29 09:04:23;;;;;;;;;;;;;;;-0.31;57.07;93479.88;2051418;70;20481;-74
2023/01/29 09:06:48;;;;;;;;;;;;;;;-0.41;55.70;93478.69;2051535;70;20049;-75
2023/01/29 09:09:14;;;;;;;;;;;;;;;-0.14;56.05;93469.31;2053073;70;20043;-77
2023/01/29 09:11:39;;;;;;;;;;;;;;;0.09;55.33;93471.78;2051379;70;20043;-74
2023/01/29 09:14:05;;;;;;;;;;;;;;;0.08;54.20;93473.81;2051275;70;20063;-74
2023/01/29 09:16:32;;;;;;;;;;;;;;;0.51;53.87;93450.81;2051393;70;20092;-75
2023/01/29 09:18:57;;;;;;;;;;;;;;;0.88;53.19;93455.50;2049439;70;20047;-77
2023/01/29 09:21:23;;;;;;;;;;;;;;;1.25;52.56;93449.03;2050280;70;20038;-76
2023/01/29 09:23:48;;;;;;;;;;;;;;;1.69;53.19;93459.81;2051007;70;20073;-76
2023/01/29 09:26:13;;;;;;;;;;;;;;;1.73;51.25;93460.25;2051295;70;20510;-75
2023/01/29 09:28:39;;;;;;;;;;;;;;;1.94;52.57;93463.84;2051001;70;20049;-77
2023/01/29 09:31:04;;;;;;;;;;;;;;;1.93;51.47;93462.38;2051185;70;20047;-78
2023/01/29 09:33:31;;;;;;;;;;;;;;;2.84;51.03;93455.53;2051289;70;20049;-77
2023/01/29 09:35:56;;;;;;;;;;;;;;;2.18;49.33;93451.00;2051312;70;20495;-75
2023/01/29 09:38:22;;;;;;;;;;;;;;;2.29;49.38;93445.94;2048038;70;20058;-77
2023/01/29 09:40:54;;;;;;;;;;;;;;;2.35;49.95;93442.28;2049031;70;20062;-75
2023/01/29 09:43:26;;;;;;;;;;;;;;;2.13;48.53;93441.50;2051875;70;20046;-74
2023/01/29 09:45:57;;;;;;;;;;;;;;;2.57;47.39;93444.56;2051277;70;20536;-74
2023/01/29 09:48:27;;;;;;;;;;;;;;;2.74;47.09;93438.59;2050189;70;20053;-75
2023/01/29 09:50:54;;;;;;;;;;;;;;;2.27;47.49;93434.59;2052048;70;20050;-76
2023/01/29 09:53:20;;;;;;;;;;;;;;;2.69;47.88;93436.69;2050724;70;20121;-80
2023/01/29 09:55:49;;;;;;;;;;;;;;;3.67;46.44;93430.38;2052903;70;20050;-77
2023/01/29 09:58:17;;;;;;;;;;;;;;;3.89;46.18;93437.34;2054563;70;20042;-77
2023/01/29 10:00:50;;;;;;;;;;;;;;;4.66;49.05;93437.63;2051920;70;20557;-79
2023/01/29 10:03:26;;;;;;;;;;;;;;;4.70;45.07;93444.34;2052917;70;20046;-77
2023/01/29 10:05:54;;;;;;;;;;;;;;;5.40;44.55;93440.28;2054690;70;20074;-78
2023/01/29 10:08:38;;;;;;;;;;;;;;;5.21;43.52;93439.91;2053428;70;20046;-78
2023/01/29 10:11:11;;;;;;;;;;;;;;;5.07;43.87;93440.09;2051475;70;20081;-82
2023/01/29 10:13:40;;;;;;;;;;;;;;;5.25;43.80;93431.91;2051073;70;20055;-74
2023/01/29 10:16:05;;;;;;;;;;;;;;;5.31;41.79;93427.66;2052889;70;20046;-77
2023/01/29 10:18:50;;;;;;;;;;;;;;;6.13;41.60;93418.16;2051027;70;20482;-78
2023/01/29 10:21:15;;;;;;;;;;;;;;;6.27;41.09;93407.50;2050433;70;20058;-79
2023/01/29 10:23:52;;;;;;;;;;;;;;;5.81;41.30;93402.78;2050444;70;20086;-79
2023/01/29 10:26:21;;;;;;;;;;;;;;;4.90;39.45;93414.78;2052516;70;20058;-79
2023/01/29 10:28:49;;;;;;;;;;;;;;;6.21;39.88;93406.97;2052279;70;20081;-80
2023/01/29 10:31:27;;;;;;;;;;;;;;;7.35;38.99;93413.91;2050539;70;20054;-77
2023/01/29 10:33:55;;;;;;;;;;;;;;;7.29;39.20;93402.94;2051613;70;20065;-79
2023/01/29 10:36:25;;;;;;;;;;;;;;;7.98;37.26;93399.47;2051397;70;20043;-77
2023/01/29 10:38:51;;;;;;;;;;;;;;;7.25;39.69;93405.41;2051395;70;20625;-79
2023/01/29 10:41:21;;;;;;;;;;;;;;;7.62;37.63;93397.22;2051692;70;20051;-76
2023/01/29 10:43:57;;;;;;;;;;;;;;;8.37;35.75;93399.78;2051851;70;20404;-78
2023/01/29 10:46:30;;;;;;;;;;;;;;;9.95;35.85;93387.25;2051892;70;20494;-79
2023/01/29 10:49:05;;;;;;;;;;;;;;;9.00;34.56;93387.16;2051746;70;20052;-79
2023/01/29 10:51:49;;;;;;;;;;;;;;;10.36;34.02;93388.19;2051872;69;20503;-79
2023/01/29 10:54:27;;;;;;;;;;;;;;;10.03;33.60;93382.94;2051370;70;20573;-77
2023/01/29 10:56:56;;;;;;;;;;;;;;;9.65;33.13;93390.00;2051652;70;20051;-79
2023/01/29 10:59:40;;;;;;;;;;;;;;;9.45;34.17;93385.69;2051790;70;20069;-78
2023/01/29 11:02:16;;;;;;;;;;;;;;;9.01;34.12;93383.00;2051793;70;20047;-78
2023/01/29 11:04:42;;;;;;;;;;;;;;;9.37;34.53;93385.81;2051790;70;20074;-79
2023/01/29 11:07:08;;;;;;;;;;;;;;;11.22;33.62;93380.84;2051755;69;20050;-77
2023/01/29 11:09:38;;;;;;;;;;;;;;;10.15;31.94;93374.66;2051879;69;20521;-78
2023/01/29 11:12:04;;;;;;;;;;;;;;;11.98;30.64;93366.22;2051603;70;20042;-82
2023/01/29 11:14:44;;;;;;;;;;;;;;;13.27;30.78;93369.50;2051612;70;20422;-81
2023/01/29 11:17:17;;;;;;;;;;;;;;;14.89;29.54;93364.09;2051652;70;20049;-83
2023/01/29 11:19:44;;;;;;;;;;;;;;;16.56;27.48;93369.25;2051595;70;20047;-81
2023/01/29 11:22:18;;;;;;;;;;;;;;;17.35;25.56;93380.13;2051496;70;20089;-77
2023/01/29 11:24:44;;;;;;;;;;;;;;;19.04;23.75;93376.81;2051576;70;20054;-83
2023/01/29 11:27:15;;;;;;;;;;;;;;;17.68;22.13;93371.69;2051410;70;20050;-81
2023/01/29 11:29:42;;;;;;;;;;;;;;;18.86;23.80;93369.63;2051424;69;20059;-78
2023/01/29 11:32:14;;;;;;;;;;;;;;;20.67;22.04;93370.72;2052193;69;20082;-82
2023/01/29 11:34:58;;;;;;;;;;;;;;;19.62;21.82;93356.22;2052661;70;20149;-77
2023/01/29 11:37:30;;;;;;;;;;;;;;;18.52;21.70;93361.84;2051494;70;20089;-82
2023/01/29 11:39:56;;;;;;;;;;;;;;;21.53;20.33;93362.03;2051565;70;20047;-77
2023/01/29 11:42:22;;;;;;;;;;;;;;;22.02;20.40;93363.47;2051467;70;20066;-79
2023/01/29 11:44:47;;;;;;;;;;;;;;;22.49;19.34;93347.56;2051539;69;20043;-78
2023/01/29 11:47:13;;;;;;;;;;;;;;;21.95;19.72;93353.97;2051457;70;20055;-78
2023/01/29 11:49:39;;;;;;;;;;;;;;;21.75;19.29;93350.50;2051589;70;20053;-81
2023/01/29 11:52:07;;;;;;;;;;;;;;;20.93;18.73;93347.94;2051351;70;20137;-78
2023/01/29 11:54:45;;;;;;;;;;;;;;;22.44;19.13;93343.13;2051401;69;20058;-78
2023/01/29 11:57:30;;;;;;;;;;;;;;;22.64;17.90;93345.84;2051436;70;20217;-82
2023/01/29 12:00:01;;;;;;;;;;;;;;;21.15;18.44;93338.63;2051720;70;20051;-78
2023/01/29 12:02:40;;;;;;;;;;;;;;;21.01;19.25;93336.03;2051707;69;20058;-79
2023/01/29 12:05:14;;;;;;;;;;;;;;;21.04;18.86;93337.56;2051124;70;20042;-83
2023/01/29 12:07:40;;;;;;;;;;;;;;;20.53;19.76;93321.63;2051818;70;20046;-81
2023/01/29 12:10:26;;;;;;;;;;;;;;;15.99;21.92;93318.13;2051728;69;20042;-80
2023/01/29 12:13:02;;;;;;;;;;;;;;;13.72;24.44;93305.03;2052284;70;20058;-76
2023/01/29 12:15:31;;;;;;;;;;;;;;;13.58;25.06;93307.75;2055267;69;20051;-77
2023/01/29 12:18:01;;;;;;;;;;;;;;;13.07;25.57;93307.50;2052271;70;20078;-76
2023/01/29 12:20:29;;;;;;;;;;;;;;;12.24;26.35;93307.94;2051776;70;20498;-76
2023/01/29 12:23:02;;;;;;;;;;;;;;;12.06;27.71;93302.59;2051577;70;20039;-81
2023/01/29 12:25:30;;;;;;;;;;;;;;;11.04;28.21;93306.31;2051649;69;20046;-81
2023/01/29 12:28:15;;;;;;;;;;;;;;;10.85;28.82;93296.63;2051465;70;20136;-80
2023/01/29 12:31:00;;;;;;;;;;;;;;;10.43;29.72;93300.00;2051720;69;20050;-81
2023/01/29 12:33:37;;;;;;;;;;;;;;;9.00;30.97;93297.28;2051676;69;20057;-82
2023/01/29 12:36:10;;;;;;;;;;;;;;;8.66;32.43;93296.13;2051687;70;20430;-82
2023/01/29 12:38:36;;;;;;;;;;;;;;;8.78;32.91;93291.44;2051593;70;20082;-81
2023/01/29 12:41:06;;;;;;;;;;;;;;;8.05;33.72;93283.66;2051610;70;20113;-76
2023/01/29 12:43:37;;;;;;;;;;;;;;;7.87;34.58;93282.22;2051686;70;20064;-80
2023/01/29 12:46:05;;;;;;;;;;;;;;;7.24;35.49;93277.13;2051652;70;20145;-79
2023/01/29 12:48:32;;;;;;;;;;;;;;;7.26;36.29;93275.25;2051594;69;20043;-79
2023/01/29 12:51:05;;;;;;;;;;;;;;;7.11;36.49;93259.34;2051548;70;20520;-80
2023/01/29 12:53:32;;;;;;;;;;;;;;;7.31;36.11;93263.06;2051700;70;20049;-77
2023/01/29 12:56:01;;;;;;;;;;;;;;;7.05;36.44;93258.09;2051569;69;20047;-79
2023/01/29 12:58:29;;;;;;;;;;;;;;;6.39;37.31;93254.75;2051415;69;20054;-78
2023/01/29 13:00:58;;;;;;;;;;;;;;;5.04;40.30;93251.47;2051539;69;20136;-77
2023/01/29 13:03:25;;;;;;;;;;;;;;;5.29;40.09;93259.19;2051421;70;20051;-78
2023/01/29 13:05:51;;;;;;;;;;;;;;;5.51;39.84;93261.16;2051295;70;20050;-79
2023/01/29 13:08:19;;;;;;;;;;;;;;;5.23;40.50;93253.09;2051850;70;20047;-79
2023/01/29 13:10:48;;;;;;;;;;;;;;;5.27;40.47;93245.81;2051432;70;20057;-77
2023/01/29 13:13:19;;;;;;;;;;;;;;;5.43;40.19;93238.09;2051312;70;20051;-78
2023/01/29 13:15:46;;;;;;;;;;;;;;;5.53;40.20;93227.06;2051509;69;20065;-76
2023/01/29 13:18:21;;;;;;;;;;;;;;;5.87;40.05;93223.75;2051500;70;20070;-79
2023/01/29 13:20:48;;;;;;;;;;;;;;;6.03;40.00;93213.97;2050939;70;20057;-80
2023/01/29 13:23:17;;;;;;;;;;;;;;;6.09;39.99;93219.34;2051617;70;20059;-79